createdAt,value
2019-05-21T00:00:46.797Z,99750.63
2019-05-21T00:03:17.427Z,99747.36
2019-05-21T00:05:48.060Z,99747.69
2019-05-21T00:08:18.619Z,99749.80
2019-05-21T00:10:49.199Z,99749.59
2019-05-21T00:13:19.825Z,99749.48
2019-05-21T00:15:50.480Z,99742.66
2019-05-21T00:18:21.115Z,99745.92
2019-05-21T00:20:51.692Z,99746.03
2019-05-21T00:23:22.401Z,99745.61
2019-05-21T00:25:53.118Z,99743.40
2019-05-21T00:28:39.753Z,99745.92
2019-05-21T00:31:46.547Z,99745.81
2019-05-21T00:34:53.660Z,99751.70
2019-05-21T00:38:00.678Z,99746.45
2019-05-21T00:41:07.916Z,99753.70
2019-05-21T00:43:47.376Z,99758.44
2019-05-21T00:46:18.026Z,99755.17
2019-05-21T00:48:48.657Z,99763.47
2019-05-21T00:51:19.246Z,99763.36
2019-05-21T00:53:49.803Z,99761.16
2019-05-21T00:56:20.376Z,99764.52
2019-05-21T00:58:51.153Z,99768.51
2019-05-21T01:01:22.000Z,99764.29
2019-05-21T01:03:52.581Z,99759.56
2019-05-21T01:06:23.444Z,99757.04
2019-05-21T01:08:54.039Z,99750.00
2019-05-21T01:11:24.723Z,99752.83
2019-05-21T01:13:55.544Z,99758.08
2019-05-21T01:16:26.142Z,99761.76
2019-05-21T01:18:56.721Z,99761.00
2019-05-21T01:21:27.303Z,99756.08
2019-05-21T01:23:57.985Z,99752.20
2019-05-21T01:26:29.050Z,99753.56
2019-05-21T01:28:59.742Z,99756.17
2019-05-21T01:31:30.326Z,99753.77
2019-05-21T01:34:00.919Z,99756.37
2019-05-21T01:36:31.503Z,99759.60
2019-05-21T01:39:02.081Z,99760.93
2019-05-21T01:41:33.009Z,99769.62
2019-05-21T01:44:04.785Z,99767.56
2019-05-21T01:46:35.372Z,99766.75
2019-05-21T01:49:05.935Z,99762.95
2019-05-21T01:51:36.478Z,99761.28
2019-05-21T01:54:07.045Z,99759.47
2019-05-21T01:56:37.607Z,99744.98
2019-05-21T01:59:09.229Z,99750.72
2019-05-21T02:01:39.796Z,99753.28
2019-05-21T02:04:10.370Z,99762.56
2019-05-21T02:06:41.004Z,99761.75
2019-05-21T02:09:11.555Z,99759.34
2019-05-21T02:11:42.166Z,99755.81
2019-05-21T02:14:12.742Z,99751.81
2019-05-21T02:16:43.305Z,99752.45
2019-05-21T02:19:13.884Z,99757.91
2019-05-21T02:21:44.434Z,99755.60
2019-05-21T02:24:14.986Z,99759.70
2019-05-21T02:26:46.514Z,99759.79
2019-05-21T02:29:17.093Z,99756.20
2019-05-21T02:31:47.648Z,99757.41
2019-05-21T02:34:18.229Z,99763.17
2019-05-21T02:36:50.011Z,99771.22
2019-05-21T02:39:21.632Z,99767.41
2019-05-21T02:41:52.224Z,99770.72
2019-05-21T02:44:22.776Z,99767.70
2019-05-21T02:46:53.409Z,99766.63
2019-05-21T02:49:23.985Z,99766.45
2019-05-21T02:51:54.925Z,99767.20
2019-05-21T02:54:40.245Z,99767.09
2019-05-21T02:56:58.721Z,99775.28
2019-05-21T02:59:29.293Z,99777.69
2019-05-21T03:02:01.603Z,99769.73
2019-05-21T03:04:33.242Z,99779.58
2019-05-21T03:07:19.129Z,99780.07
2019-05-21T03:09:50.109Z,99785.70
2019-05-21T03:12:20.905Z,99779.98
2019-05-21T03:14:51.598Z,99790.89
2019-05-21T03:17:22.218Z,99789.77
2019-05-21T03:19:52.771Z,99791.85
2019-05-21T03:22:23.341Z,99795.54
2019-05-21T03:24:53.925Z,99793.85
2019-05-21T03:27:24.534Z,99790.89
2019-05-21T03:29:55.085Z,99795.08
2019-05-21T03:32:26.181Z,99793.63
2019-05-21T03:34:56.912Z,99793.24
2019-05-21T03:37:27.575Z,99798.09
2019-05-21T03:39:58.269Z,99794.27
2019-05-21T03:42:29.081Z,99795.68
2019-05-21T03:45:01.100Z,99796.23
2019-05-21T03:47:32.065Z,99799.80
2019-05-21T03:50:03.332Z,99799.95
2019-05-21T03:52:34.492Z,99803.61
2019-05-21T03:55:06.241Z,99803.43
2019-05-21T03:57:36.847Z,99801.64
2019-05-21T04:00:09.752Z,99804.44
2019-05-21T04:02:40.408Z,99803.69
2019-05-21T04:05:11.497Z,99806.06
2019-05-21T04:07:42.082Z,99807.86
2019-05-21T04:10:17.500Z,99799.48
2019-05-21T04:13:06.871Z,99798.42
2019-05-21T04:15:53.074Z,99809.89
2019-05-21T04:18:31.202Z,99810.02
2019-05-21T04:21:01.777Z,99805.09
2019-05-21T04:23:32.361Z,99798.57
2019-05-21T04:26:02.944Z,99804.66
2019-05-21T04:28:33.523Z,99801.94
2019-05-21T04:31:04.163Z,99798.16
2019-05-21T04:33:34.730Z,99805.52
2019-05-21T04:36:05.438Z,99803.11
2019-05-21T04:38:36.178Z,99806.05
2019-05-21T04:41:06.807Z,99803.63
2019-05-21T04:43:37.407Z,99796.47
2019-05-21T04:46:08.006Z,99799.09
2019-05-21T04:48:38.581Z,99792.88
2019-05-21T04:51:13.487Z,99794.02
2019-05-21T04:53:41.616Z,99793.59
2019-05-21T04:56:12.451Z,99796.20
2019-05-21T04:58:43.046Z,99795.02
2019-05-21T05:01:13.702Z,99795.09
2019-05-21T05:03:44.715Z,99790.25
2019-05-21T05:06:15.631Z,99795.17
2019-05-21T05:08:46.380Z,99799.49
2019-05-21T05:11:17.087Z,99800.86
2019-05-21T05:13:48.374Z,99800.75
2019-05-21T05:16:19.077Z,99798.62
2019-05-21T05:18:49.910Z,99806.88
2019-05-21T05:21:21.543Z,99809.80
2019-05-21T05:23:52.138Z,99813.69
2019-05-21T05:26:22.712Z,99811.95
2019-05-21T05:28:53.271Z,99812.70
2019-05-21T05:31:23.840Z,99820.61
2019-05-21T05:33:54.751Z,99814.16
2019-05-21T05:36:25.460Z,99804.05
2019-05-21T05:38:56.185Z,99796.17
2019-05-21T05:41:27.337Z,99803.91
2019-05-21T05:43:58.336Z,99803.91
2019-05-21T05:46:29.287Z,99808.62
2019-05-21T05:49:01.953Z,99805.47
2019-05-21T05:51:32.957Z,99824.52
2019-05-21T05:54:07.585Z,99821.59
2019-05-21T05:56:37.834Z,99817.85
2019-05-21T05:59:08.744Z,99818.39
2019-05-21T06:01:39.387Z,99820.77
2019-05-21T06:04:09.954Z,99820.53
2019-05-21T06:06:40.636Z,99813.77
2019-05-21T06:09:11.200Z,99814.56
2019-05-21T06:11:41.746Z,99815.20
2019-05-21T06:14:12.315Z,99812.65
2019-05-21T06:16:42.897Z,99809.66
2019-05-21T06:19:14.541Z,99801.30
2019-05-21T06:21:45.322Z,99805.80
2019-05-21T06:24:16.161Z,99805.33
2019-05-21T06:26:46.712Z,99806.45
2019-05-21T06:29:17.274Z,99807.41
2019-05-21T06:31:47.976Z,99807.73
2019-05-21T06:34:18.541Z,99796.11
2019-05-21T06:36:49.137Z,99798.25
2019-05-21T06:39:19.787Z,99793.61
2019-05-21T06:41:50.362Z,99797.52
2019-05-21T06:44:20.965Z,99795.06
2019-05-21T06:46:51.661Z,99799.47
2019-05-21T06:49:22.220Z,99794.10
2019-05-21T06:51:54.272Z,99789.70
2019-05-21T06:54:24.839Z,99791.11
2019-05-21T06:56:55.435Z,99800.45
2019-05-21T06:59:26.099Z,99801.45
2019-05-21T07:01:56.840Z,99801.86
2019-05-21T07:04:27.559Z,99798.45
2019-05-21T07:06:59.228Z,99797.59
2019-05-21T07:09:29.914Z,99797.41
2019-05-21T07:12:00.485Z,99794.24
2019-05-21T07:14:31.048Z,99797.70
2019-05-21T07:17:01.623Z,99800.16
2019-05-21T07:19:32.175Z,99805.50
2019-05-21T07:22:12.034Z,99803.47
2019-05-21T07:24:35.076Z,99805.44
2019-05-21T07:27:05.717Z,99803.05
2019-05-21T07:29:37.262Z,99809.17
2019-05-21T07:32:07.842Z,99810.19
2019-05-21T07:34:39.499Z,99806.37
2019-05-21T07:37:10.130Z,99800.63
2019-05-21T07:39:40.691Z,99805.33
2019-05-21T07:42:14.315Z,99807.87
2019-05-21T07:44:47.209Z,99809.36
2019-05-21T07:47:17.776Z,99803.28
2019-05-21T07:49:48.327Z,99812.53
2019-05-21T07:52:18.981Z,99809.05
2019-05-21T07:54:49.554Z,99808.76
2019-05-21T07:57:20.181Z,99807.16
2019-05-21T07:59:51.753Z,99808.48
2019-05-21T08:02:22.310Z,99808.16
2019-05-21T08:04:52.884Z,99808.13
2019-05-21T08:07:23.443Z,99806.22
2019-05-21T08:09:54.023Z,99807.06
2019-05-21T08:12:38.305Z,99814.92
2019-05-21T08:14:56.870Z,99813.42
2019-05-21T08:17:27.494Z,99816.48
2019-05-21T08:20:08.739Z,99810.98
2019-05-21T08:22:30.466Z,99808.66
2019-05-21T08:25:01.051Z,99802.73
2019-05-21T08:27:31.666Z,99807.81
2019-05-21T08:30:02.249Z,99798.64
2019-05-21T08:32:32.983Z,99803.72
2019-05-21T08:35:04.328Z,99804.95
2019-05-21T08:37:34.887Z,99800.59
2019-05-21T08:40:07.832Z,99798.84
2019-05-21T08:42:38.918Z,99796.73
2019-05-21T08:45:10.507Z,99793.91
2019-05-21T08:47:41.069Z,99801.38
2019-05-21T08:50:12.523Z,99799.55
2019-05-21T08:52:43.102Z,99797.98
2019-05-21T08:55:13.836Z,99804.76
2019-05-21T08:57:44.528Z,99801.85
2019-05-21T09:00:17.799Z,99803.29
2019-05-21T09:02:48.431Z,99803.05
2019-05-21T09:05:19.377Z,99799.22
2019-05-21T09:07:53.108Z,99794.87
2019-05-21T09:10:22.385Z,99797.19
2019-05-21T09:12:52.966Z,99800.05
2019-05-21T09:15:25.480Z,99803.78
2019-05-21T09:17:56.075Z,99806.72
2019-05-21T09:20:26.780Z,99803.72
2019-05-21T09:22:57.425Z,99803.02
2019-05-21T09:25:28.022Z,99808.32
2019-05-21T09:27:58.857Z,99799.53
2019-05-21T09:30:29.499Z,99799.61
2019-05-21T09:33:00.070Z,99802.13
2019-05-21T09:35:30.731Z,99799.36
2019-05-21T09:38:01.319Z,99799.03
2019-05-21T09:40:32.045Z,99804.14
2019-05-21T09:43:04.109Z,99801.33
2019-05-21T09:45:34.765Z,99796.52
2019-05-21T09:48:05.577Z,99797.94
2019-05-21T09:50:37.273Z,99803.73
2019-05-21T09:53:07.976Z,99804.14
2019-05-21T09:55:38.547Z,99792.23
2019-05-21T09:58:13.687Z,99796.87
2019-05-21T10:01:02.348Z,99793.90
2019-05-21T10:03:50.908Z,99791.14
2019-05-21T10:06:21.502Z,99793.83
2019-05-21T10:08:52.103Z,99791.16
2019-05-21T10:11:23.626Z,99787.50
2019-05-21T10:13:55.302Z,99782.79
2019-05-21T10:16:25.867Z,99787.89
2019-05-21T10:18:56.491Z,99784.00
2019-05-21T10:21:27.168Z,99776.62
2019-05-21T10:23:57.775Z,99774.83
2019-05-21T10:26:28.467Z,99775.69
2019-05-21T10:28:59.055Z,99777.32
2019-05-21T10:31:29.750Z,99777.25
2019-05-21T10:34:00.323Z,99771.58
2019-05-21T10:36:30.884Z,99770.97
2019-05-21T10:39:01.880Z,99766.05
2019-05-21T10:41:34.346Z,99773.94
2019-05-21T10:44:05.087Z,99771.40
2019-05-21T10:46:35.664Z,99777.63
2019-05-21T10:49:06.480Z,99769.86
2019-05-21T10:51:37.153Z,99771.35
2019-05-21T10:54:08.041Z,99773.08
2019-05-21T10:56:48.127Z,99770.51
2019-05-21T10:59:10.892Z,99763.15
2019-05-21T11:01:55.066Z,99773.53
2019-05-21T11:04:36.041Z,99771.67
2019-05-21T11:07:07.181Z,99779.80
2019-05-21T11:09:37.831Z,99777.91
2019-05-21T11:12:09.382Z,99784.50
2019-05-21T11:14:39.934Z,99779.45
2019-05-21T11:17:12.072Z,99780.22
2019-05-21T11:19:42.669Z,99787.89
2019-05-21T11:22:13.226Z,99780.02
2019-05-21T11:24:43.777Z,99781.88
2019-05-21T11:27:14.418Z,99781.93
2019-05-21T11:29:44.997Z,99784.98
2019-05-21T11:32:15.573Z,99775.30
2019-05-21T11:34:49.818Z,99784.36
2019-05-21T11:37:18.476Z,99778.47
2019-05-21T11:39:49.036Z,99777.30
2019-05-21T11:42:19.597Z,99785.39
2019-05-21T11:44:50.159Z,99781.13
2019-05-21T11:47:20.789Z,99783.77
2019-05-21T11:49:51.511Z,99771.74
2019-05-21T11:52:22.125Z,99775.09
2019-05-21T11:54:55.797Z,99776.78
2019-05-21T11:57:25.213Z,99769.40
2019-05-21T11:59:55.766Z,99769.36
2019-05-21T12:02:26.324Z,99760.77
2019-05-21T12:04:56.882Z,99760.45
2019-05-21T12:07:27.443Z,99761.52
2019-05-21T12:09:58.020Z,99755.09
2019-05-21T12:12:28.565Z,99760.90
2019-05-21T12:14:59.140Z,99752.38
2019-05-21T12:17:29.987Z,99759.28
2019-05-21T12:20:00.568Z,99762.88
2019-05-21T12:22:31.377Z,99767.78
2019-05-21T12:25:02.034Z,99773.74
2019-05-21T12:27:32.598Z,99778.28
2019-05-21T12:30:04.983Z,99772.52
2019-05-21T12:32:35.618Z,99769.17
2019-05-21T12:35:07.041Z,99766.89
2019-05-21T12:37:37.598Z,99769.80
2019-05-21T12:40:09.532Z,99770.03
2019-05-21T12:42:40.703Z,99772.31
2019-05-21T12:45:11.415Z,99782.89
2019-05-21T12:47:41.969Z,99790.07
2019-05-21T12:50:14.104Z,99795.37
2019-05-21T12:52:44.692Z,99788.75
2019-05-21T12:55:17.820Z,99782.61
2019-05-21T12:57:48.379Z,99787.84
2019-05-21T13:00:19.780Z,99786.52
2019-05-21T13:02:50.951Z,99782.61
2019-05-21T13:05:21.511Z,99770.56
2019-05-21T13:07:52.479Z,99762.81
2019-05-21T13:10:23.105Z,99769.19
2019-05-21T13:12:53.939Z,99769.61
2019-05-21T13:15:24.504Z,99771.49
2019-05-21T13:17:55.091Z,99769.31
2019-05-21T13:20:25.703Z,99766.38
2019-05-21T13:22:56.280Z,99771.29
2019-05-21T13:25:27.188Z,99771.47
2019-05-21T13:27:57.954Z,99771.14
2019-05-21T13:30:28.847Z,99771.12
2019-05-21T13:32:59.372Z,99770.94
2019-05-21T13:35:30.002Z,99775.98
2019-05-21T13:38:01.724Z,99768.80
2019-05-21T13:40:32.738Z,99762.41
2019-05-21T13:43:03.518Z,99759.80
2019-05-21T13:45:35.169Z,99765.99
2019-05-21T13:48:06.035Z,99762.30
2019-05-21T13:50:36.595Z,99767.83
2019-05-21T13:53:07.236Z,99772.81
2019-05-21T13:55:37.809Z,99764.42
2019-05-21T13:58:08.510Z,99763.39
2019-05-21T14:00:40.807Z,99764.02
2019-05-21T14:03:11.607Z,99762.41
2019-05-21T14:05:42.444Z,99758.28
2019-05-21T14:08:14.683Z,99759.38
2019-05-21T14:10:46.758Z,99763.11
2019-05-21T14:13:17.506Z,99760.48
2019-05-21T14:15:48.088Z,99753.34
2019-05-21T14:18:20.364Z,99750.48
2019-05-21T14:20:52.638Z,99747.77
2019-05-21T14:23:23.237Z,99763.02
2019-05-21T14:25:53.810Z,99761.03
2019-05-21T14:28:24.474Z,99760.35
2019-05-21T14:30:55.038Z,99757.72
2019-05-21T14:33:26.563Z,99752.97
2019-05-21T14:35:57.353Z,99750.95
2019-05-21T14:38:27.925Z,99746.28
2019-05-21T14:41:00.208Z,99748.87
2019-05-21T14:43:32.275Z,99744.48
2019-05-21T14:46:02.947Z,99746.53
2019-05-21T14:48:35.145Z,99741.92
2019-05-21T14:51:05.821Z,99750.56
2019-05-21T14:53:36.534Z,99743.39
2019-05-21T14:56:08.144Z,99743.31
2019-05-21T14:58:38.720Z,99739.75
2019-05-21T15:01:09.524Z,99748.91
2019-05-21T15:03:40.823Z,99752.64
2019-05-21T15:06:11.566Z,99758.19
2019-05-21T15:08:42.186Z,99759.11
2019-05-21T15:11:15.937Z,99752.82
2019-05-21T15:13:46.613Z,99754.72
2019-05-21T15:16:20.364Z,99758.27
2019-05-21T15:18:51.803Z,99758.17
2019-05-21T15:21:26.846Z,99756.60
2019-05-21T15:23:57.762Z,99763.62
2019-05-21T15:26:28.573Z,99763.52
2019-05-21T15:28:59.110Z,99766.80
2019-05-21T15:31:30.158Z,99761.77
2019-05-21T15:34:01.159Z,99756.37
2019-05-21T15:36:31.893Z,99755.08
2019-05-21T15:39:02.486Z,99749.77
2019-05-21T15:41:34.135Z,99741.27
2019-05-21T15:44:04.979Z,99751.59
2019-05-21T15:46:47.821Z,99746.50
2019-05-21T15:49:08.636Z,99751.07
2019-05-21T15:51:39.225Z,99752.88
2019-05-21T15:54:09.813Z,99761.03
2019-05-21T15:56:40.427Z,99750.37
2019-05-21T15:59:11.024Z,99745.39
2019-05-21T16:01:41.804Z,99745.84
2019-05-21T16:04:16.067Z,99745.14
2019-05-21T16:06:44.626Z,99744.67
2019-05-21T16:09:15.220Z,99745.05
2019-05-21T16:11:45.874Z,99746.81
2019-05-21T16:14:17.395Z,99749.66
2019-05-21T16:16:47.945Z,99749.48
2019-05-21T16:19:18.612Z,99753.19
2019-05-21T16:21:49.306Z,99745.78
2019-05-21T16:24:19.883Z,99746.77
2019-05-21T16:26:50.468Z,99738.59
2019-05-21T16:29:21.129Z,99744.14
2019-05-21T16:31:52.066Z,99746.69
2019-05-21T16:34:22.699Z,99747.78
2019-05-21T16:36:53.453Z,99757.11
2019-05-21T16:39:25.398Z,99756.98
2019-05-21T16:41:55.951Z,99750.63
2019-05-21T16:44:26.616Z,99747.16
2019-05-21T16:46:58.947Z,99745.28
2019-05-21T16:49:29.508Z,99746.41
2019-05-21T16:52:00.088Z,99748.25
2019-05-21T16:54:30.872Z,99742.43
2019-05-21T16:57:01.581Z,99737.62
2019-05-21T16:59:32.876Z,99741.55
2019-05-21T17:02:06.074Z,99742.34
2019-05-21T17:04:36.735Z,99742.66
2019-05-21T17:07:07.361Z,99749.75
2019-05-21T17:09:37.940Z,99746.64
2019-05-21T17:12:09.158Z,99753.20
2019-05-21T17:14:40.175Z,99740.09
2019-05-21T17:17:10.809Z,99738.41
2019-05-21T17:19:41.491Z,99734.81
2019-05-21T17:22:12.276Z,99738.77
2019-05-21T17:24:43.196Z,99733.55
2019-05-21T17:27:14.695Z,99728.48
2019-05-21T17:29:45.333Z,99731.78
2019-05-21T17:32:15.947Z,99723.91
2019-05-21T17:34:46.538Z,99726.86
2019-05-21T17:37:17.247Z,99725.78
2019-05-21T17:39:49.297Z,99725.53
2019-05-21T17:42:19.896Z,99721.70
2019-05-21T17:44:50.450Z,99719.38
2019-05-21T17:47:23.610Z,99718.55
2019-05-21T17:49:54.807Z,99719.38
2019-05-21T17:52:26.699Z,99711.41
2019-05-21T17:54:57.354Z,99705.06
2019-05-21T17:57:29.343Z,99700.09
2019-05-21T17:59:59.978Z,99696.06
2019-05-21T18:02:32.182Z,99698.47
2019-05-21T18:05:03.124Z,99688.36
2019-05-21T18:07:38.572Z,99688.36
2019-05-21T18:10:09.992Z,99695.56
2019-05-21T18:12:40.620Z,99700.76
2019-05-21T18:15:13.365Z,99708.30
2019-05-21T18:17:44.121Z,99703.99
2019-05-21T18:20:15.973Z,99708.77
2019-05-21T18:22:48.747Z,99713.02
2019-05-21T18:25:19.461Z,99708.19
2019-05-21T18:27:50.211Z,99713.30
2019-05-21T18:30:21.188Z,99714.77
2019-05-21T18:32:53.202Z,99714.77
2019-05-21T18:35:24.092Z,99725.07
2019-05-21T18:37:55.038Z,99718.95
2019-05-21T18:40:25.743Z,99718.95
2019-05-21T18:42:56.782Z,99730.50
2019-05-21T18:45:27.473Z,99745.20
2019-05-21T18:47:58.074Z,99770.74
2019-05-21T18:50:36.120Z,99832.87
2019-05-21T18:53:01.193Z,99828.24
2019-05-21T18:55:32.855Z,99808.24
2019-05-21T18:58:03.625Z,99822.08
2019-05-21T19:00:34.349Z,99819.56
2019-05-21T19:03:05.321Z,99821.95
2019-05-21T19:05:36.017Z,99822.44
2019-05-21T19:08:06.648Z,99825.26
2019-05-21T19:10:38.269Z,99821.13
2019-05-21T19:13:10.859Z,99817.52
2019-05-21T19:15:41.748Z,99807.75
2019-05-21T19:18:13.637Z,99817.59
2019-05-21T19:20:45.461Z,99814.30
2019-05-21T19:23:16.211Z,99807.20
2019-05-21T19:25:48.396Z,99817.55
2019-05-21T19:28:19.306Z,99807.82
2019-05-21T19:30:50.048Z,99809.50
2019-05-21T19:33:21.918Z,99802.72
2019-05-21T19:35:54.074Z,99797.11
2019-05-21T19:38:26.123Z,99802.58
2019-05-21T19:40:56.859Z,99802.40
2019-05-21T19:43:27.505Z,99803.14
2019-05-21T19:45:58.643Z,99808.81
2019-05-21T19:48:30.407Z,99801.53
2019-05-21T19:51:01.015Z,99795.80
2019-05-21T19:53:32.067Z,99792.50
2019-05-21T19:56:05.409Z,99789.32
2019-05-21T19:58:37.209Z,99786.77
2019-05-21T20:01:08.521Z,99795.42
2019-05-21T20:03:42.465Z,99800.64
2019-05-21T20:06:16.617Z,99792.38
2019-05-21T20:08:48.431Z,99798.59
2019-05-21T20:11:20.860Z,99800.53
2019-05-21T20:13:54.365Z,99805.66
2019-05-21T20:16:25.850Z,99798.96
2019-05-21T20:18:57.053Z,99802.67
2019-05-21T20:21:29.194Z,99798.34
2019-05-21T20:24:02.239Z,99795.91
2019-05-21T20:26:34.927Z,99799.27
2019-05-21T20:29:09.365Z,99804.22
2019-05-21T20:31:41.028Z,99804.22
2019-05-21T20:34:12.921Z,99807.36
2019-05-21T20:36:45.366Z,99798.09
2019-05-21T20:39:16.535Z,99800.23
2019-05-21T20:41:47.818Z,99792.28
2019-05-21T20:44:18.545Z,99792.86
2019-05-21T20:46:49.968Z,99795.25
2019-05-21T20:49:20.555Z,99795.99
2019-05-21T20:51:52.006Z,99798.64
2019-05-21T20:54:23.220Z,99797.05
2019-05-21T20:56:54.814Z,99797.50
2019-05-21T20:59:25.503Z,99798.03
2019-05-21T21:01:57.445Z,99798.56
2019-05-21T21:04:28.429Z,99798.70
2019-05-21T21:07:01.023Z,99799.80
2019-05-21T21:09:31.718Z,99799.58
2019-05-21T21:12:02.997Z,99802.36
2019-05-21T21:14:33.655Z,99799.71
2019-05-21T21:17:05.988Z,99799.09
2019-05-21T21:19:36.787Z,99798.06
2019-05-21T21:24:29.140Z,99781.92
2019-05-21T21:27:01.178Z,99783.19
2019-05-21T21:29:31.749Z,99781.64
2019-05-21T21:32:02.723Z,99777.39
2019-05-21T21:34:33.804Z,99774.61
2019-05-21T21:37:05.699Z,99773.51
2019-05-21T21:39:38.035Z,99774.79
2019-05-21T21:42:08.702Z,99779.91
2019-05-21T21:44:41.710Z,99783.48
2019-05-21T21:47:12.772Z,99782.36
2019-05-21T21:49:44.121Z,99785.92
2019-05-21T21:52:16.184Z,99781.55
2019-05-21T21:54:47.293Z,99785.88
2019-05-21T21:57:18.017Z,99794.31
2019-05-21T21:59:48.592Z,99797.73
2019-05-21T22:02:28.462Z,99790.14
2019-05-21T22:04:59.766Z,99797.95
2019-05-21T22:07:31.904Z,99793.59
2019-05-21T22:10:04.673Z,99796.83
2019-05-21T22:12:37.198Z,99804.49
2019-05-21T22:15:08.281Z,99802.41
2019-05-21T22:17:42.342Z,99801.23
2019-05-21T22:20:14.229Z,99805.46
2019-05-21T22:22:45.942Z,99800.09
2019-05-21T22:25:17.878Z,99802.40
2019-05-21T22:27:48.452Z,99801.79
2019-05-21T22:30:19.771Z,99811.20
2019-05-21T22:32:50.333Z,99807.31
2019-05-21T22:38:40.360Z,99806.83
2019-05-21T22:41:10.957Z,99794.90
2019-05-21T22:43:41.779Z,99791.14
2019-05-21T22:46:12.355Z,99790.52
2019-05-21T22:48:43.021Z,99790.66
2019-05-21T22:51:13.643Z,99788.70
2019-05-21T22:53:44.382Z,99795.37
2019-05-21T22:56:15.029Z,99792.61
2019-05-21T22:58:45.622Z,99794.53
2019-05-21T23:01:16.377Z,99794.40
2019-05-21T23:03:47.051Z,99796.08
2019-05-21T23:06:17.712Z,99797.54
2019-05-21T23:08:48.658Z,99794.84
2019-05-21T23:11:22.862Z,99793.13
2019-05-21T23:13:51.958Z,99795.11
2019-05-21T23:16:23.553Z,99793.73
2019-05-21T23:19:13.066Z,99795.23
2019-05-21T23:21:46.266Z,99794.47
2019-05-21T23:24:19.193Z,99805.27
2019-05-21T23:26:50.009Z,99800.55
2019-05-21T23:29:21.380Z,99795.25
2019-05-21T23:31:53.195Z,99807.11
2019-05-21T23:34:23.797Z,99803.96
2019-05-21T23:36:54.795Z,99801.75
2019-05-21T23:39:27.571Z,99803.34
2019-05-21T23:41:58.220Z,99804.37
2019-05-21T23:44:28.780Z,99813.11
2019-05-21T23:46:59.717Z,99806.81
2019-05-21T23:49:30.631Z,99803.86
2019-05-21T23:52:01.333Z,99808.19
2019-05-21T23:54:32.172Z,99808.63
2019-05-21T23:57:03.012Z,99812.72
2019-05-21T23:59:33.563Z,99802.52
